Hooper, Nebraska
Current Conditions -  °F | °C
As of 9:55 PM on Sunday 23 Nov 2014 (Local Time) from KFET Reporting Station
Clear Clear  
Wind Chill: 22°   Ceiling: Unl
Heat Index: 35°   Visibility: 10mi
Dew Point: 23°   Wind: 31mph
Humidity: 61%   Direction: 300°WNW
Pressure: 29.59"   Gusts: 37mph
Location:  41.61°N, 96.55°W
Report Text: KFET 240355Z AUTO 30027G32KT 10SM CLR 02/M05 A2959 RMK AO2 T00171050
Loading
Personal Weather Stations






























Interactive Weather Map New forecast layout! Learn more

10-Day Weather Forecast

Advertisements
Track Severe Weather on mobile